Alquina, Indiana
Current Conditions -  °F | °C
As of 12:35 PM on Tuesday 21 Oct 2014 (Local Time) from KI67 Reporting Station
Overcast Overcast  
Wind Chill: 54°   Ceiling: 4200
Heat Index: 54°   Visibility: 10mi
Dew Point: 37°   Wind: 7mph
Humidity: 54%   Direction: 350°N
Pressure: 30.05"   Gusts: NA
Location:  39.645°N, 85.1744°W
Report Text: KI67 211635Z AUTO 35006KT 10SM BKN042 OVC048 12/03 A3005 RMK AO1
Loading
Personal Weather Stations






























Interactive Weather Map New forecast layout! Learn more

10-Day Weather Forecast

Advertisements
Track Severe Weather on mobile